createdAt,value
2024-04-17T00:00:19.398Z,9.418303
2024-04-17T00:01:19.553Z,9.418255
2024-04-17T00:02:19.391Z,9.418296
2024-04-17T00:03:19.420Z,9.418269
2024-04-17T00:04:19.466Z,9.418267
2024-04-17T00:05:19.482Z,9.418336
2024-04-17T00:06:19.355Z,9.418331
2024-04-17T00:07:19.349Z,9.418344
2024-04-17T00:08:19.346Z,9.418295
2024-04-17T00:09:19.335Z,9.418275
2024-04-17T00:10:19.391Z,9.418215
2024-04-17T00:11:19.477Z,9.418324
2024-04-17T00:12:19.313Z,9.418293
2024-04-17T00:13:19.376Z,9.418339
2024-04-17T00:14:19.305Z,9.418337
2024-04-17T00:15:19.327Z,9.418282
2024-04-17T00:16:19.321Z,9.418240
2024-04-17T00:17:19.298Z,9.418363
2024-04-17T00:18:19.355Z,9.418351
2024-04-17T00:19:19.294Z,9.418345
2024-04-17T00:20:19.270Z,9.418260
2024-04-17T00:21:19.291Z,9.418274
2024-04-17T00:22:19.295Z,9.418283
2024-04-17T00:23:19.259Z,9.418332
2024-04-17T00:24:19.240Z,9.418305
2024-04-17T00:25:19.253Z,9.418335
2024-04-17T00:26:19.262Z,9.418394
2024-04-17T00:27:19.230Z,9.418272
2024-04-17T00:28:19.246Z,9.418293
2024-04-17T00:29:19.203Z,9.418292
2024-04-17T00:30:19.199Z,9.418417
2024-04-17T00:31:19.227Z,9.418370
2024-04-17T00:32:19.193Z,9.418355
2024-04-17T00:33:19.257Z,9.418368
2024-04-17T00:34:19.202Z,9.418261
2024-04-17T00:35:19.165Z,9.418281
2024-04-17T00:36:19.162Z,9.418339
2024-04-17T00:37:19.185Z,9.418324
2024-04-17T00:38:19.137Z,9.418349
2024-04-17T00:39:19.129Z,9.418386
2024-04-17T00:40:19.152Z,9.418336
2024-04-17T00:41:19.131Z,9.418295
2024-04-17T00:42:19.119Z,9.418358
2024-04-17T00:43:19.141Z,9.418310
2024-04-17T00:44:19.098Z,9.418267
2024-04-17T00:45:19.086Z,9.418324
2024-04-17T00:46:19.153Z,9.418377
2024-04-17T00:47:19.099Z,9.418381
2024-04-17T00:48:19.138Z,9.418370
2024-04-17T00:49:19.084Z,9.418358
2024-04-17T00:50:19.047Z,9.418375
2024-04-17T00:51:19.046Z,9.418350
2024-04-17T00:52:19.060Z,9.418346
2024-04-17T00:53:19.036Z,9.418414
2024-04-17T00:54:19.130Z,9.418726
2024-04-17T00:55:19.049Z,9.418576
2024-04-17T00:56:19.023Z,9.418668
2024-04-17T00:57:19.003Z,9.418898
2024-04-17T00:58:19.041Z,9.418992
2024-04-17T00:59:19.142Z,9.418912
2024-04-17T01:00:18.993Z,9.418727
2024-04-17T01:01:19.056Z,9.418248
2024-04-17T01:02:19.010Z,9.418440
2024-04-17T01:03:18.987Z,9.418447
2024-04-17T01:04:19.000Z,9.418314
2024-04-17T01:05:18.953Z,9.418208
2024-04-17T01:06:19.083Z,9.418231
2024-04-17T01:07:18.954Z,9.418283
2024-04-17T01:08:18.937Z,9.418324
2024-04-17T01:09:18.937Z,9.418226
2024-04-17T01:10:19.081Z,9.418316
2024-04-17T01:11:18.985Z,9.418425
2024-04-17T01:12:18.916Z,9.418341
2024-04-17T01:13:18.995Z,9.418226
2024-04-17T01:14:18.900Z,9.418312
2024-04-17T01:15:18.899Z,9.418309
2024-04-17T01:16:19.514Z,9.418275
2024-04-17T01:17:18.959Z,9.418266
2024-04-17T01:18:18.988Z,9.418289
2024-04-17T01:19:18.977Z,9.418269
2024-04-17T01:20:18.883Z,9.418288
2024-04-17T01:21:18.890Z,9.418242
2024-04-17T01:22:19.022Z,9.418248
2024-04-17T01:23:18.835Z,9.418183
2024-04-17T01:24:18.842Z,9.418192
2024-04-17T01:25:18.971Z,9.418226
2024-04-17T01:26:18.846Z,9.418254
2024-04-17T01:27:18.816Z,9.418246
2024-04-17T01:28:18.820Z,9.418242
2024-04-17T01:29:18.799Z,9.418247
2024-04-17T01:30:18.820Z,9.418231
2024-04-17T01:31:18.811Z,9.418166
2024-04-17T01:32:18.970Z,9.418182
2024-04-17T01:33:18.870Z,9.418160
2024-04-17T01:34:18.780Z,9.418224
2024-04-17T01:35:18.787Z,9.418224
2024-04-17T01:36:18.758Z,9.418212
2024-04-17T01:37:18.927Z,9.418202
2024-04-17T01:38:18.776Z,9.418203
2024-04-17T01:39:18.742Z,9.418161
2024-04-17T01:40:18.774Z,9.418148
2024-04-17T01:41:18.730Z,9.418145
2024-04-17T01:42:18.747Z,9.418126
2024-04-17T01:43:18.719Z,9.418168
2024-04-17T01:44:24.322Z,9.418196
2024-04-17T01:45:20.689Z,9.418221
2024-04-17T01:46:18.692Z,9.418230
2024-04-17T01:47:18.719Z,9.418193
2024-04-17T01:48:18.699Z,9.418255
2024-04-17T01:49:18.675Z,9.418194
2024-04-17T01:50:18.671Z,9.418227
2024-04-17T01:51:18.667Z,9.418213
2024-04-17T01:52:18.667Z,9.418221
2024-04-17T01:53:18.656Z,9.418286
2024-04-17T01:54:18.650Z,9.418215
2024-04-17T01:55:18.652Z,9.418221
2024-04-17T01:56:18.704Z,9.418211
2024-04-17T01:57:18.618Z,9.418212
2024-04-17T01:58:18.616Z,9.418226
2024-04-17T01:59:18.612Z,9.418182
2024-04-17T02:00:18.632Z,9.418279
2024-04-17T02:01:18.624Z,9.418238
2024-04-17T02:02:18.589Z,9.418288
2024-04-17T02:03:18.654Z,9.418191
2024-04-17T02:04:18.577Z,9.418193
2024-04-17T02:05:18.576Z,9.418197
2024-04-17T02:06:18.573Z,9.418150
2024-04-17T02:07:18.555Z,9.418165
2024-04-17T02:08:18.550Z,9.418215
2024-04-17T02:09:18.545Z,9.418227
2024-04-17T02:10:18.670Z,9.418246
2024-04-17T02:11:18.603Z,9.418220
2024-04-17T02:12:18.512Z,9.418225
2024-04-17T02:13:18.522Z,9.418219
2024-04-17T02:14:18.505Z,9.418212
2024-04-17T02:15:18.514Z,9.418159
2024-04-17T02:16:18.490Z,9.418202
2024-04-17T02:17:18.549Z,9.418165
2024-04-17T02:18:18.592Z,9.418153
2024-04-17T02:19:18.477Z,9.418144
2024-04-17T02:20:18.462Z,9.418118
2024-04-17T02:21:18.468Z,9.418199
2024-04-17T02:22:18.452Z,9.418224
2024-04-17T02:23:18.452Z,9.418204
2024-04-17T02:24:18.444Z,9.418172
2024-04-17T02:25:18.435Z,9.418177
2024-04-17T02:26:18.447Z,9.418190
2024-04-17T02:27:18.415Z,9.418211
2024-04-17T02:28:18.420Z,9.418277
2024-04-17T02:29:18.412Z,9.418262
2024-04-17T02:30:18.394Z,9.418260
2024-04-17T02:31:18.401Z,9.418132
2024-04-17T02:32:18.416Z,9.418163
2024-04-17T02:33:18.499Z,9.418236
2024-04-17T02:34:18.391Z,9.418214
2024-04-17T02:35:18.384Z,9.418275
2024-04-17T02:36:18.366Z,9.418269
2024-04-17T02:37:18.382Z,9.418269
2024-04-17T02:38:18.369Z,9.418159
2024-04-17T02:39:18.356Z,9.418079
2024-04-17T02:40:18.348Z,9.418177
2024-04-17T02:41:18.377Z,9.418143
2024-04-17T02:42:18.358Z,9.418204
2024-04-17T02:43:18.339Z,9.418195
2024-04-17T02:44:18.351Z,9.418271
2024-04-17T02:45:18.330Z,9.418274
2024-04-17T02:46:18.322Z,9.418225
2024-04-17T02:47:18.376Z,9.418215
2024-04-17T02:48:18.440Z,9.418262
2024-04-17T02:49:18.285Z,9.418287
2024-04-17T02:50:18.292Z,9.418233
2024-04-17T02:51:18.272Z,9.418315
2024-04-17T02:52:18.277Z,9.418357
2024-04-17T02:53:18.262Z,9.418313
2024-04-17T02:54:18.272Z,9.418328
2024-04-17T02:55:18.306Z,9.418243
2024-04-17T02:56:18.268Z,9.418234
2024-04-17T02:57:18.236Z,9.418279
2024-04-17T02:58:18.278Z,9.418211
2024-04-17T02:59:18.226Z,9.418188
2024-04-17T03:00:18.230Z,9.418262
2024-04-17T03:01:18.407Z,9.418241
2024-04-17T03:02:18.197Z,9.418313
2024-04-17T03:03:18.217Z,9.418276
2024-04-17T03:04:18.231Z,9.418231
2024-04-17T03:05:18.207Z,9.418241
2024-04-17T03:06:18.199Z,9.418306
2024-04-17T03:07:18.174Z,9.418327
2024-04-17T03:08:18.161Z,9.418346
2024-04-17T03:09:18.183Z,9.418301
2024-04-17T03:10:18.168Z,9.418252
2024-04-17T03:11:18.207Z,9.418218
2024-04-17T03:12:18.139Z,9.418208
2024-04-17T03:13:18.134Z,9.418234
2024-04-17T03:14:18.179Z,9.418306
2024-04-17T03:15:18.113Z,9.418317
2024-04-17T03:16:18.104Z,9.418347
2024-04-17T03:17:18.146Z,9.418468
2024-04-17T03:18:18.128Z,9.418324
2024-04-17T03:19:18.094Z,9.418338
2024-04-17T03:20:18.111Z,9.418412
2024-04-17T03:21:18.079Z,9.418427
2024-04-17T03:22:18.095Z,9.418334
2024-04-17T03:23:18.071Z,9.418380
2024-04-17T03:24:18.066Z,9.418480
2024-04-17T03:25:18.085Z,9.418395
2024-04-17T03:26:18.050Z,9.418428
2024-04-17T03:27:18.073Z,9.418419
2024-04-17T03:28:18.033Z,9.418272
2024-04-17T03:29:18.057Z,9.418298
2024-04-17T03:30:18.031Z,9.418311
2024-04-17T03:31:18.040Z,9.418334
2024-04-17T03:32:18.035Z,9.418308
2024-04-17T03:33:18.131Z,9.418349
2024-04-17T03:34:18.017Z,9.418398
2024-04-17T03:35:18.012Z,9.418379
2024-04-17T03:36:17.994Z,9.418342
2024-04-17T03:37:17.983Z,9.418377
2024-04-17T03:38:18.017Z,9.418419
2024-04-17T03:39:17.965Z,9.418451
2024-04-17T03:40:17.967Z,9.418426
2024-04-17T03:41:17.977Z,9.418417
2024-04-17T03:42:20.393Z,9.418387
2024-04-17T03:43:17.957Z,9.418377
2024-04-17T03:44:17.951Z,9.418305
2024-04-17T03:45:18.037Z,9.418264
2024-04-17T03:46:17.946Z,9.418271
2024-04-17T03:47:17.938Z,9.418268
2024-04-17T03:48:17.935Z,9.418306
2024-04-17T03:49:17.903Z,9.418294
2024-04-17T03:50:17.929Z,9.418259
2024-04-17T03:51:17.898Z,9.418285
2024-04-17T03:52:17.958Z,9.418310
2024-04-17T03:53:17.874Z,9.418285
2024-04-17T03:54:17.870Z,9.418252
2024-04-17T03:55:17.900Z,9.418269
2024-04-17T03:56:17.863Z,9.418398
2024-04-17T03:57:17.852Z,9.418382
2024-04-17T03:58:17.850Z,9.418285
2024-04-17T03:59:17.843Z,9.418327
2024-04-17T04:00:17.843Z,9.418233
2024-04-17T04:01:17.851Z,9.418268
2024-04-17T04:02:17.892Z,9.418315
2024-04-17T04:03:17.885Z,9.418265
2024-04-17T04:04:17.842Z,9.418324
2024-04-17T04:05:17.815Z,9.418322
2024-04-17T04:06:17.801Z,9.418320
2024-04-17T04:07:17.813Z,9.418177
2024-04-17T04:08:17.802Z,9.418247
2024-04-17T04:09:17.778Z,9.418242
2024-04-17T04:10:17.814Z,9.418273
2024-04-17T04:11:17.849Z,9.418340
2024-04-17T04:12:17.783Z,9.418303
2024-04-17T04:13:17.756Z,9.418293
2024-04-17T04:14:17.740Z,9.418300
2024-04-17T04:15:17.716Z,9.418303
2024-04-17T04:16:17.732Z,9.418271
2024-04-17T04:17:17.877Z,9.418258
2024-04-17T04:18:17.818Z,9.418277
2024-04-17T04:19:17.727Z,9.418277
2024-04-17T04:20:17.721Z,9.418226
2024-04-17T04:21:17.697Z,9.418164
2024-04-17T04:22:17.865Z,9.418257
2024-04-17T04:23:17.693Z,9.418216
2024-04-17T04:24:17.689Z,9.418283
2024-04-17T04:25:17.674Z,9.418286
2024-04-17T04:26:17.672Z,9.418274
2024-04-17T04:27:17.689Z,9.418229
2024-04-17T04:28:17.658Z,9.418152
2024-04-17T04:29:17.652Z,9.418215
2024-04-17T04:30:19.954Z,9.418208
2024-04-17T04:31:17.632Z,9.418058
2024-04-17T04:32:17.699Z,9.418277
2024-04-17T04:33:17.926Z,9.418223
2024-04-17T04:34:17.620Z,9.418161
2024-04-17T04:35:17.609Z,9.418176
2024-04-17T04:36:17.603Z,9.418221
2024-04-17T04:37:17.942Z,9.418274
2024-04-17T04:38:17.652Z,9.418222
2024-04-17T04:39:17.585Z,9.418241
2024-04-17T04:40:17.571Z,9.418327
2024-04-17T04:41:18.573Z,9.418241
2024-04-17T04:42:17.561Z,9.418235
2024-04-17T04:43:17.561Z,9.418278
2024-04-17T04:44:17.557Z,9.418276
2024-04-17T04:45:17.565Z,9.418328
2024-04-17T04:46:17.569Z,9.418125
2024-04-17T04:47:17.584Z,9.418193
2024-04-17T04:48:18.015Z,9.418216
2024-04-17T04:49:17.520Z,9.418298
2024-04-17T04:50:17.518Z,9.418312
2024-04-17T04:51:17.630Z,9.418320
2024-04-17T04:52:17.510Z,9.418159
2024-04-17T04:53:17.514Z,9.418228
2024-04-17T04:54:17.493Z,9.418075
2024-04-17T04:55:17.484Z,9.417969
2024-04-17T04:56:17.518Z,9.418179
2024-04-17T04:57:17.535Z,9.418263
2024-04-17T04:58:17.458Z,9.418454
2024-04-17T04:59:17.446Z,9.418475
2024-04-17T05:00:18.018Z,9.418218
2024-04-17T05:01:17.476Z,9.418180
2024-04-17T05:02:17.511Z,9.418277
2024-04-17T05:03:17.487Z,9.418406
2024-04-17T05:04:17.472Z,9.418634
2024-04-17T05:05:17.548Z,9.418519
2024-04-17T05:06:17.408Z,9.418463
2024-04-17T05:07:17.390Z,9.418224
2024-04-17T05:08:18.336Z,9.418273
2024-04-17T05:09:17.425Z,9.418270
2024-04-17T05:10:17.412Z,9.418317
2024-04-17T05:11:17.418Z,9.418407
2024-04-17T05:12:17.369Z,9.418448
2024-04-17T05:13:17.363Z,9.418307
2024-04-17T05:14:17.350Z,9.418196
2024-04-17T05:15:17.351Z,9.418242
2024-04-17T05:16:17.368Z,9.418133
2024-04-17T05:17:17.370Z,9.417943
2024-04-17T05:18:17.436Z,9.417849
2024-04-17T05:19:17.350Z,9.418050
2024-04-17T05:20:17.319Z,9.418192
2024-04-17T05:21:17.352Z,9.418352
2024-04-17T05:22:18.298Z,9.418342
2024-04-17T05:23:17.313Z,9.418263
2024-04-17T05:24:18.291Z,9.418163
2024-04-17T05:25:17.285Z,9.418193
2024-04-17T05:26:17.289Z,9.418099
2024-04-17T05:27:17.274Z,9.418274
2024-04-17T05:28:17.265Z,9.418230
2024-04-17T05:29:17.254Z,9.418349
2024-04-17T05:30:17.245Z,9.418159
2024-04-17T05:31:17.254Z,9.418222
2024-04-17T05:32:17.349Z,9.418216
2024-04-17T05:33:17.375Z,9.418357
2024-04-17T05:34:17.255Z,9.418447
2024-04-17T05:35:17.341Z,9.418331
2024-04-17T05:36:17.233Z,9.418291
2024-04-17T05:37:17.217Z,9.418187
2024-04-17T05:38:17.351Z,9.418234
2024-04-17T05:39:17.359Z,9.417935
2024-04-17T05:40:17.189Z,9.418099
2024-04-17T05:41:17.178Z,9.418391
2024-04-17T05:42:17.181Z,9.418081
2024-04-17T05:43:17.199Z,9.418225
2024-04-17T05:44:17.171Z,9.418227
2024-04-17T05:45:17.161Z,9.418205
2024-04-17T05:46:17.167Z,9.418141
2024-04-17T05:47:17.216Z,9.418053
2024-04-17T05:48:17.289Z,9.417981
2024-04-17T05:49:17.135Z,9.418095
2024-04-17T05:50:17.257Z,9.418234
2024-04-17T05:51:17.126Z,9.418019
2024-04-17T05:52:17.115Z,9.418480
2024-04-17T05:53:17.140Z,9.418223
2024-04-17T05:54:17.111Z,9.418242
2024-04-17T05:55:17.086Z,9.418015
2024-04-17T05:56:17.079Z,9.418067
2024-04-17T05:57:17.080Z,9.418064
2024-04-17T05:58:17.062Z,9.418123
2024-04-17T05:59:17.073Z,9.418232
2024-04-17T06:00:17.274Z,9.418072
2024-04-17T06:01:17.062Z,9.418028
2024-04-17T06:02:17.047Z,9.418088
2024-04-17T06:03:17.102Z,9.417942
2024-04-17T06:04:17.113Z,9.417891
2024-04-17T06:05:17.048Z,9.417992
2024-04-17T06:06:17.028Z,9.417962
2024-04-17T06:07:17.011Z,9.417711
2024-04-17T06:08:17.022Z,9.417933
2024-04-17T06:09:17.332Z,9.418056
2024-04-17T06:10:17.010Z,9.418265
2024-04-17T06:11:17.095Z,9.418355
2024-04-17T06:12:17.016Z,9.418410
2024-04-17T06:13:17.006Z,9.418301
2024-04-17T06:14:16.973Z,9.418288
2024-04-17T06:15:17.030Z,9.418109
2024-04-17T06:16:16.954Z,9.418235
2024-04-17T06:17:16.941Z,9.418404
2024-04-17T06:18:16.951Z,9.418319
2024-04-17T06:19:17.948Z,9.418175
2024-04-17T06:20:19.331Z,9.418133
2024-04-17T06:21:16.908Z,9.418198
2024-04-17T06:22:16.910Z,9.418634
2024-04-17T06:23:16.960Z,9.418261
2024-04-17T06:24:16.895Z,9.418208
2024-04-17T06:25:16.910Z,9.418214
2024-04-17T06:26:16.880Z,9.418199
2024-04-17T06:27:16.870Z,9.418279
2024-04-17T06:28:16.863Z,9.418258
2024-04-17T06:29:16.865Z,9.418200
2024-04-17T06:30:17.198Z,9.418193
2024-04-17T06:31:16.875Z,9.418243
2024-04-17T06:32:16.877Z,9.418286
2024-04-17T06:33:16.861Z,9.418237
2024-04-17T06:34:16.838Z,9.418249
2024-04-17T06:35:16.856Z,9.418324
2024-04-17T06:36:16.843Z,9.418231
2024-04-17T06:37:16.801Z,9.418211
2024-04-17T06:38:16.861Z,9.418301
2024-04-17T06:39:16.789Z,9.418257
2024-04-17T06:40:16.823Z,9.418234
2024-04-17T06:41:16.793Z,9.418212
2024-04-17T06:42:16.800Z,9.418244
2024-04-17T06:43:16.773Z,9.418302
2024-04-17T06:44:16.775Z,9.418219
2024-04-17T06:45:16.853Z,9.418192
2024-04-17T06:46:16.837Z,9.418250
2024-04-17T06:47:16.772Z,9.418273
2024-04-17T06:48:18.048Z,9.418339
2024-04-17T06:49:16.747Z,9.418266
2024-04-17T06:50:16.733Z,9.418284
2024-04-17T06:51:16.727Z,9.418302
2024-04-17T06:52:16.701Z,9.418221
2024-04-17T06:53:16.702Z,9.418253
2024-04-17T06:54:16.716Z,9.418234
2024-04-17T06:55:16.684Z,9.418261
2024-04-17T06:56:16.717Z,9.418242
2024-04-17T06:57:16.708Z,9.418263
2024-04-17T06:58:16.674Z,9.418205
2024-04-17T06:59:16.668Z,9.418284
2024-04-17T07:00:17.178Z,9.418236
2024-04-17T07:01:16.777Z,9.418315
2024-04-17T07:02:17.258Z,9.418326
2024-04-17T07:03:16.786Z,9.418310
2024-04-17T07:04:16.645Z,9.418326
2024-04-17T07:05:16.654Z,9.418337
2024-04-17T07:06:16.619Z,9.418333
2024-04-17T07:07:16.626Z,9.418195
2024-04-17T07:08:16.596Z,9.418259
2024-04-17T07:09:16.599Z,9.418290
2024-04-17T07:10:16.591Z,9.418299
2024-04-17T07:11:16.686Z,9.418265
2024-04-17T07:12:16.584Z,9.418242
2024-04-17T07:13:16.581Z,9.418208
2024-04-17T07:14:16.554Z,9.418221
2024-04-17T07:15:16.574Z,9.418254
2024-04-17T07:16:16.563Z,9.418240
2024-04-17T07:17:18.766Z,9.418322
2024-04-17T07:18:17.735Z,9.418272
2024-04-17T07:19:16.627Z,9.418245
2024-04-17T07:20:16.574Z,9.418194
2024-04-17T07:21:16.570Z,9.418282
2024-04-17T07:22:16.513Z,9.418229
2024-04-17T07:23:16.519Z,9.418279
2024-04-17T07:24:16.501Z,9.418303
2024-04-17T07:25:17.493Z,9.418321
2024-04-17T07:26:16.503Z,9.418240
2024-04-17T07:27:16.473Z,9.418320
2024-04-17T07:28:16.515Z,9.418287
2024-04-17T07:29:16.581Z,9.418190
2024-04-17T07:30:16.572Z,9.418239
2024-04-17T07:31:16.450Z,9.418319
2024-04-17T07:32:16.659Z,9.418298
2024-04-17T07:33:16.457Z,9.418260
2024-04-17T07:34:16.418Z,9.418319
2024-04-17T07:35:16.435Z,9.418207
2024-04-17T07:36:16.416Z,9.418296
2024-04-17T07:37:16.466Z,9.418321
2024-04-17T07:38:16.406Z,9.418219
2024-04-17T07:39:16.443Z,9.418187
2024-04-17T07:40:16.403Z,9.418200
2024-04-17T07:41:18.536Z,9.418298
2024-04-17T07:42:16.364Z,9.418292
2024-04-17T07:43:16.365Z,9.418367
2024-04-17T07:44:16.364Z,9.418278
2024-04-17T07:45:16.379Z,9.418339
2024-04-17T07:46:16.338Z,9.418185
2024-04-17T07:47:16.386Z,9.418324
2024-04-17T07:48:16.417Z,9.418276
2024-04-17T07:49:16.341Z,9.418355
2024-04-17T07:50:16.358Z,9.418341
2024-04-17T07:51:16.310Z,9.418260
2024-04-17T07:52:16.312Z,9.418262
2024-04-17T07:53:16.307Z,9.418209
2024-04-17T07:54:16.316Z,9.418325
2024-04-17T07:55:16.316Z,9.418030
2024-04-17T07:56:16.272Z,9.417953
2024-04-17T07:57:16.287Z,9.418168
2024-04-17T07:58:16.277Z,9.418083
2024-04-17T07:59:16.324Z,9.418149
2024-04-17T08:00:16.270Z,9.418417
2024-04-17T08:01:16.349Z,9.418363
2024-04-17T08:02:16.335Z,9.418391
2024-04-17T08:03:16.247Z,9.418301
2024-04-17T08:04:17.251Z,9.418250
2024-04-17T08:05:16.336Z,9.418138
2024-04-17T08:06:16.326Z,9.418163
2024-04-17T08:07:16.301Z,9.418282
2024-04-17T08:08:16.206Z,9.418202
2024-04-17T08:09:16.199Z,9.418209
2024-04-17T08:10:16.193Z,9.418236
2024-04-17T08:11:16.304Z,9.418281
2024-04-17T08:12:16.277Z,9.418154
2024-04-17T08:13:16.266Z,9.418098
2024-04-17T08:14:16.223Z,9.418084
2024-04-17T08:15:16.160Z,9.418158
2024-04-17T08:16:16.172Z,9.418268
2024-04-17T08:17:16.219Z,9.418256
2024-04-17T08:18:16.211Z,9.418234
2024-04-17T08:19:16.125Z,9.418187
2024-04-17T08:20:16.211Z,9.418193
2024-04-17T08:21:16.240Z,9.418235
2024-04-17T08:22:16.134Z,9.418328
2024-04-17T08:23:16.100Z,9.418358
2024-04-17T08:24:16.115Z,9.418309
2024-04-17T08:25:16.094Z,9.418140
2024-04-17T08:26:16.105Z,9.418128
2024-04-17T08:27:16.131Z,9.418271
2024-04-17T08:28:16.117Z,9.418264
2024-04-17T08:29:16.074Z,9.418255
2024-04-17T08:30:16.057Z,9.418247
2024-04-17T08:31:16.052Z,9.418304
2024-04-17T08:32:16.059Z,9.418236
2024-04-17T08:33:16.094Z,9.418251
2024-04-17T08:34:16.021Z,9.418256
2024-04-17T08:35:16.067Z,9.418255
2024-04-17T08:36:16.014Z,9.418287
2024-04-17T08:37:16.083Z,9.418197
2024-04-17T08:38:16.163Z,9.418246
2024-04-17T08:39:16.024Z,9.418314
2024-04-17T08:40:16.036Z,9.418295
2024-04-17T08:41:15.983Z,9.418285
2024-04-17T08:42:15.968Z,9.418275
2024-04-17T08:43:16.054Z,9.418283
2024-04-17T08:44:16.126Z,9.418283
2024-04-17T08:45:15.954Z,9.418337
2024-04-17T08:46:15.959Z,9.418364
2024-04-17T08:47:16.079Z,9.418303
2024-04-17T08:48:16.105Z,9.418303
2024-04-17T08:49:15.935Z,9.418327
2024-04-17T08:50:16.032Z,9.418421
2024-04-17T08:51:15.911Z,9.418614
2024-04-17T08:52:15.997Z,9.418361
2024-04-17T08:53:15.910Z,9.418407
2024-04-17T08:54:15.913Z,9.418322
2024-04-17T08:55:15.920Z,9.418350
2024-04-17T08:56:15.894Z,9.418294
2024-04-17T08:57:15.923Z,9.418261
2024-04-17T08:58:15.895Z,9.418230
2024-04-17T08:59:15.890Z,9.418161
2024-04-17T09:00:15.857Z,9.418228
2024-04-17T09:01:15.927Z,9.418173
2024-04-17T09:02:16.037Z,9.418202
2024-04-17T09:03:15.869Z,9.418258
2024-04-17T09:04:15.847Z,9.418250
2024-04-17T09:05:15.840Z,9.418320
2024-04-17T09:06:15.823Z,9.418288
2024-04-17T09:07:15.826Z,9.418203
2024-04-17T09:08:15.805Z,9.418344
2024-04-17T09:09:15.835Z,9.418264
2024-04-17T09:10:15.803Z,9.418166
2024-04-17T09:11:15.966Z,9.418169
2024-04-17T09:12:15.845Z,9.418272
2024-04-17T09:13:15.832Z,9.418251
2024-04-17T09:14:15.790Z,9.418206
2024-04-17T09:15:15.759Z,9.418219
2024-04-17T09:16:15.759Z,9.418282
2024-04-17T09:17:15.922Z,9.418311
2024-04-17T09:18:15.875Z,9.418213
2024-04-17T09:19:15.751Z,9.418233
2024-04-17T09:20:15.805Z,9.418139
2024-04-17T09:21:15.742Z,9.418282
2024-04-17T09:22:15.722Z,9.418159
2024-04-17T09:23:15.712Z,9.418215
2024-04-17T09:24:15.714Z,9.418180
2024-04-17T09:25:15.732Z,9.418097
2024-04-17T09:26:15.701Z,9.418117
2024-04-17T09:27:15.693Z,9.418142
2024-04-17T09:28:15.682Z,9.418166
2024-04-17T09:29:15.693Z,9.418119
2024-04-17T09:30:15.704Z,9.418059
2024-04-17T09:31:15.662Z,9.418098
2024-04-17T09:32:15.703Z,9.418102
2024-04-17T09:33:15.812Z,9.418225
2024-04-17T09:34:15.680Z,9.418281
2024-04-17T09:35:15.662Z,9.418236
2024-04-17T09:36:15.662Z,9.418200
2024-04-17T09:37:15.626Z,9.418191
2024-04-17T09:38:15.666Z,9.418240
2024-04-17T09:39:15.662Z,9.418282
2024-04-17T09:40:15.613Z,9.418275
2024-04-17T09:41:15.622Z,9.418224
2024-04-17T09:42:15.604Z,9.418147
2024-04-17T09:43:20.059Z,9.418243
2024-04-17T09:44:17.609Z,9.418218
2024-04-17T09:45:15.604Z,9.418231
2024-04-17T09:46:15.862Z,9.418305
2024-04-17T09:47:15.706Z,9.418239
2024-04-17T09:48:15.567Z,9.418261
2024-04-17T09:49:15.646Z,9.418215
2024-04-17T09:50:15.568Z,9.418224
2024-04-17T09:51:15.573Z,9.418239
2024-04-17T09:52:17.801Z,9.418250
2024-04-17T09:53:27.681Z,9.418293
2024-04-17T09:54:17.537Z,9.418284
2024-04-17T09:55:15.583Z,9.418353
2024-04-17T09:56:15.601Z,9.418292
2024-04-17T09:57:15.614Z,9.418217
2024-04-17T09:58:15.526Z,9.418295
2024-04-17T09:59:15.656Z,9.418263
2024-04-17T10:00:15.643Z,9.418256
2024-04-17T10:01:15.532Z,9.418332
2024-04-17T10:02:15.669Z,9.418444
2024-04-17T10:03:15.569Z,9.418326
2024-04-17T10:04:16.852Z,9.418449
2024-04-17T10:05:15.458Z,9.418466
2024-04-17T10:06:15.481Z,9.418435
2024-04-17T10:07:15.452Z,9.418342
2024-04-17T10:08:15.694Z,9.418301
2024-04-17T10:09:15.431Z,9.418230
2024-04-17T10:10:15.770Z,9.418349
2024-04-17T10:11:15.710Z,9.418382
2024-04-17T10:12:15.445Z,9.418268
2024-04-17T10:13:15.417Z,9.418364
2024-04-17T10:14:15.400Z,9.418204
2024-04-17T10:15:15.399Z,9.418284
2024-04-17T10:16:16.288Z,9.418315
2024-04-17T10:17:26.223Z,9.418330
2024-04-17T10:18:17.468Z,9.418339
2024-04-17T10:19:15.392Z,9.418268
2024-04-17T10:20:15.396Z,9.418322
2024-04-17T10:21:15.357Z,9.418252
2024-04-17T10:22:16.367Z,9.418194
2024-04-17T10:23:15.349Z,9.418157
2024-04-17T10:24:15.359Z,9.418135
2024-04-17T10:25:20.745Z,9.418227
2024-04-17T10:26:17.365Z,9.418178
2024-04-17T10:27:15.332Z,9.418261
2024-04-17T10:28:16.311Z,9.418247
2024-04-17T10:29:15.380Z,9.418231
2024-04-17T10:30:15.338Z,9.418229
2024-04-17T10:31:15.403Z,9.418240
2024-04-17T10:32:15.615Z,9.418294
2024-04-17T10:33:15.386Z,9.418298
2024-04-17T10:34:15.278Z,9.418278
2024-04-17T10:35:15.288Z,9.418213
2024-04-17T10:36:15.322Z,9.418291
2024-04-17T10:37:15.291Z,9.418324
2024-04-17T10:38:23.672Z,9.418208
2024-04-17T10:39:17.260Z,9.418207
2024-04-17T10:40:15.302Z,9.418179
2024-04-17T10:41:15.256Z,9.418250
2024-04-17T10:42:15.237Z,9.418320
2024-04-17T10:43:15.240Z,9.418281
2024-04-17T10:44:15.395Z,9.418233
2024-04-17T10:45:15.239Z,9.418211
2024-04-17T10:46:15.213Z,9.418194
2024-04-17T10:47:15.342Z,9.418201
2024-04-17T10:48:15.340Z,9.418190
2024-04-17T10:49:15.220Z,9.418200
2024-04-17T10:50:16.040Z,9.418184
2024-04-17T10:51:16.515Z,9.418176
2024-04-17T10:52:15.943Z,9.418126
2024-04-17T10:53:15.388Z,9.418201
2024-04-17T10:54:15.188Z,9.418235
2024-04-17T10:55:15.198Z,9.418131
2024-04-17T10:56:16.104Z,9.418303
2024-04-17T10:57:16.205Z,9.418297
2024-04-17T10:58:15.327Z,9.418289
2024-04-17T10:59:15.128Z,9.418368
2024-04-17T11:00:15.183Z,9.418256
2024-04-17T11:01:15.331Z,9.418407
2024-04-17T11:02:15.911Z,9.418353
2024-04-17T11:03:16.192Z,9.418180
2024-04-17T11:04:15.330Z,9.418246
2024-04-17T11:05:15.191Z,9.418239
2024-04-17T11:06:15.083Z,9.418256
2024-04-17T11:07:15.129Z,9.418329
2024-04-17T11:08:15.805Z,9.418250
2024-04-17T11:09:15.073Z,9.418291
2024-04-17T11:10:15.104Z,9.418265
2024-04-17T11:11:15.576Z,9.418282
2024-04-17T11:12:15.055Z,9.418310
2024-04-17T11:13:15.066Z,9.418376
2024-04-17T11:14:15.043Z,9.418333
2024-04-17T11:15:15.209Z,9.418351
2024-04-17T11:16:15.021Z,9.418381
2024-04-17T11:17:15.440Z,9.418330
2024-04-17T11:18:15.047Z,9.418302
2024-04-17T11:19:15.024Z,9.418535
2024-04-17T11:20:15.007Z,9.418375
2024-04-17T11:21:15.110Z,9.418459
2024-04-17T11:22:14.979Z,9.418251
2024-04-17T11:23:14.974Z,9.418251
2024-04-17T11:24:15.058Z,9.418241
2024-04-17T11:25:14.966Z,9.418335
2024-04-17T11:26:14.956Z,9.418338
2024-04-17T11:27:15.022Z,9.418349
2024-04-17T11:28:14.955Z,9.418259
2024-04-17T11:29:14.989Z,9.418171
2024-04-17T11:30:14.945Z,9.418289
2024-04-17T11:31:14.946Z,9.418245
2024-04-17T11:32:14.981Z,9.418199
2024-04-17T11:33:15.022Z,9.418288
2024-04-17T11:34:17.126Z,9.418324
2024-04-17T11:35:14.901Z,9.418280
2024-04-17T11:36:14.912Z,9.418207
2024-04-17T11:37:15.086Z,9.418335
2024-04-17T11:38:14.876Z,9.418360
2024-04-17T11:39:14.875Z,9.418275
2024-04-17T11:40:14.877Z,9.418223
2024-04-17T11:41:15.469Z,9.418246
2024-04-17T11:42:14.892Z,9.418297
2024-04-17T11:43:15.013Z,9.418307
2024-04-17T11:44:14.862Z,9.418277